createdAt,value
2019-02-22T00:05:34.299Z,34.17
2019-02-22T00:08:07.086Z,36.00
2019-02-22T00:14:23.741Z,37.80
2019-02-22T00:17:39.633Z,38.57
2019-02-22T00:20:11.255Z,37.63
2019-02-22T00:26:13.688Z,37.80
2019-02-22T00:29:57.260Z,38.63
2019-02-22T00:32:30.827Z,36.53
2019-02-22T00:35:03.634Z,37.47
2019-02-22T00:42:19.730Z,35.13
2019-02-22T00:55:42.043Z,33.10
2019-02-22T00:58:36.015Z,33.30
2019-02-22T01:01:30.098Z,31.30
2019-02-22T01:12:33.654Z,31.67
2019-02-22T01:34:53.981Z,32.40
2019-02-22T01:41:03.160Z,31.43
2019-02-22T01:49:51.077Z,30.43
2019-02-22T02:02:29.114Z,32.00
2019-02-22T02:08:59.366Z,32.00
2019-02-22T02:12:09.778Z,32.60
2019-02-22T02:14:41.444Z,30.50
2019-02-22T02:17:52.316Z,32.70
2019-02-22T02:21:15.245Z,31.37
2019-02-22T02:28:00.015Z,30.73
2019-02-22T02:31:25.379Z,31.23
2019-02-22T02:37:17.693Z,31.47
2019-02-22T02:51:51.074Z,31.83
2019-02-22T02:54:22.050Z,33.33
2019-02-22T03:00:43.222Z,34.50
2019-02-22T03:10:36.465Z,36.13
2019-02-22T03:16:20.867Z,34.23
2019-02-22T03:25:06.544Z,40.63
2019-02-22T03:27:36.562Z,36.67
2019-02-22T03:30:34.945Z,34.50
2019-02-22T03:38:53.562Z,34.10
2019-02-22T03:41:33.265Z,33.73
2019-02-22T03:47:38.852Z,33.57
2019-02-22T03:50:43.373Z,32.67
2019-02-22T03:57:15.612Z,32.70
2019-02-22T03:59:51.029Z,31.53
2019-02-22T04:06:03.320Z,31.00
2019-02-22T04:08:35.865Z,31.47
2019-02-22T04:11:06.152Z,32.00
2019-02-22T04:14:02.520Z,32.83
2019-02-22T04:16:33.635Z,32.83
2019-02-22T04:19:07.573Z,31.23
2019-02-22T04:22:07.594Z,32.13
2019-02-22T04:24:55.811Z,29.73
2019-02-22T04:27:45.329Z,30.30
2019-02-22T04:30:17.009Z,29.80
2019-02-22T04:32:50.058Z,31.87
2019-02-22T04:35:18.891Z,30.53
2019-02-22T04:37:47.843Z,30.43
2019-02-22T04:40:17.239Z,35.47
2019-02-22T04:42:46.070Z,31.30
2019-02-22T04:45:15.077Z,31.40
2019-02-22T04:47:44.022Z,30.00
2019-02-22T04:50:13.088Z,30.00
2019-02-22T04:52:41.979Z,30.33
2019-02-22T04:55:10.903Z,29.43
2019-02-22T04:57:42.439Z,28.67
2019-02-22T05:00:11.457Z,29.37
2019-02-22T05:02:40.315Z,29.40
2019-02-22T05:05:09.354Z,39.17
2019-02-22T05:07:38.170Z,31.70
2019-02-22T05:10:07.335Z,29.10
2019-02-22T05:12:36.482Z,30.00
2019-02-22T05:15:12.416Z,29.83
2019-02-22T05:17:36.430Z,29.47
2019-02-22T05:20:06.143Z,29.37
2019-02-22T05:22:35.082Z,30.53
2019-02-22T05:25:04.142Z,28.93
2019-02-22T05:27:32.993Z,47.30
2019-02-22T05:30:02.227Z,30.60
2019-02-22T05:32:31.182Z,29.67
2019-02-22T05:35:00.005Z,28.87
2019-02-22T05:37:28.958Z,29.70
2019-02-22T05:39:57.917Z,28.83
2019-02-22T05:42:28.678Z,30.27
2019-02-22T05:44:57.658Z,30.00
2019-02-22T05:47:26.673Z,31.30
2019-02-22T05:49:55.609Z,32.13
2019-02-22T05:52:24.551Z,30.00
2019-02-22T05:54:53.432Z,32.33
2019-02-22T05:57:22.258Z,32.33
2019-02-22T05:59:51.162Z,36.33
2019-02-22T06:02:20.048Z,32.33
2019-02-22T06:04:49.203Z,34.87
2019-02-22T06:07:18.151Z,36.50
2019-02-22T06:09:46.987Z,33.13
2019-02-22T06:12:18.466Z,31.73
2019-02-22T06:14:46.906Z,33.13
2019-02-22T06:17:16.130Z,32.23
2019-02-22T06:19:45.180Z,33.63
2019-02-22T06:22:14.461Z,36.30
2019-02-22T06:24:43.932Z,35.73
2019-02-22T06:27:13.097Z,36.37
2019-02-22T06:29:42.326Z,36.43
2019-02-22T06:32:11.624Z,36.97
2019-02-22T06:34:40.839Z,36.83
2019-02-22T06:37:09.933Z,38.27
2019-02-22T06:39:39.168Z,38.60
2019-02-22T06:42:08.524Z,41.73
2019-02-22T06:44:38.131Z,41.17
2019-02-22T06:47:07.479Z,42.47
2019-02-22T06:49:36.644Z,43.33
2019-02-22T06:52:06.369Z,42.07
2019-02-22T06:54:35.640Z,43.70
2019-02-22T06:57:05.013Z,43.57
2019-02-22T06:59:34.310Z,42.70
2019-02-22T07:02:04.153Z,42.17
2019-02-22T07:04:33.917Z,42.27
2019-02-22T07:07:03.538Z,40.20
2019-02-22T07:09:32.886Z,38.10
2019-02-22T07:12:06.025Z,42.23
2019-02-22T07:14:35.239Z,42.40
2019-02-22T07:17:04.464Z,42.70
2019-02-22T07:19:33.806Z,41.87
2019-02-22T07:22:03.001Z,39.97
2019-02-22T07:24:32.199Z,42.73
2019-02-22T07:27:01.490Z,41.97
2019-02-22T07:29:30.542Z,40.53
2019-02-22T07:32:06.030Z,40.93
2019-02-22T07:34:30.545Z,38.43
2019-02-22T07:36:59.947Z,40.03
2019-02-22T07:39:29.208Z,39.83
2019-02-22T07:41:58.526Z,41.27
2019-02-22T07:44:27.725Z,41.13
2019-02-22T07:46:57.007Z,41.67
2019-02-22T07:49:27.421Z,40.57
2019-02-22T07:51:56.859Z,40.00
2019-02-22T07:54:26.140Z,42.00
2019-02-22T07:56:55.390Z,40.73
2019-02-22T07:59:24.783Z,40.00
2019-02-22T08:01:53.973Z,41.00
2019-02-22T08:04:23.439Z,40.00
2019-02-22T08:06:52.768Z,40.57
2019-02-22T08:09:22.139Z,44.27
2019-02-22T08:11:51.441Z,41.37
2019-02-22T08:14:20.930Z,41.37
2019-02-22T08:16:50.274Z,41.30
2019-02-22T08:19:19.936Z,42.77
2019-02-22T08:21:49.220Z,45.73
2019-02-22T08:24:18.536Z,43.90
2019-02-22T08:26:47.623Z,42.63
2019-02-22T08:29:16.904Z,42.97
2019-02-22T08:31:46.174Z,43.27
2019-02-22T08:34:15.407Z,44.30
2019-02-22T08:36:44.743Z,42.27
2019-02-22T08:39:14.034Z,40.97
2019-02-22T08:41:43.400Z,44.03
2019-02-22T08:44:12.752Z,42.97
2019-02-22T08:46:42.127Z,41.77
2019-02-22T08:49:11.401Z,52.77
2019-02-22T08:51:40.694Z,40.43
2019-02-22T08:54:10.313Z,38.20
2019-02-22T08:56:39.622Z,36.20
2019-02-22T08:59:08.957Z,37.20
2019-02-22T09:01:38.303Z,39.40
2019-02-22T09:04:07.618Z,36.67
2019-02-22T09:06:36.963Z,35.27
2019-02-22T09:09:06.336Z,34.17
2019-02-22T09:11:35.550Z,32.17
2019-02-22T09:14:04.815Z,34.50
2019-02-22T09:16:34.053Z,33.30
2019-02-22T09:19:03.435Z,33.63
2019-02-22T09:21:32.807Z,31.60
2019-02-22T09:24:02.122Z,30.47
2019-02-22T09:26:31.421Z,31.70
2019-02-22T09:29:00.744Z,30.47
2019-02-22T09:31:30.047Z,30.33
2019-02-22T09:33:59.429Z,32.30
2019-02-22T09:36:29.397Z,33.47
2019-02-22T09:38:58.721Z,31.77
2019-02-22T09:41:28.098Z,32.67
2019-02-22T09:43:57.526Z,29.83
2019-02-22T09:46:26.791Z,31.40
2019-02-22T09:48:55.999Z,28.00
2019-02-22T09:51:25.316Z,35.87
2019-02-22T09:53:54.435Z,28.83
2019-02-22T09:56:23.635Z,27.20
2019-02-22T09:58:52.854Z,25.77
2019-02-22T10:01:22.136Z,27.13
2019-02-22T10:03:51.482Z,25.43
2019-02-22T10:06:20.723Z,24.43
2019-02-22T10:08:50.074Z,25.37
2019-02-22T10:11:19.469Z,25.33
2019-02-22T10:13:48.523Z,24.47
2019-02-22T10:16:17.429Z,23.73
2019-02-22T10:18:46.393Z,22.57
2019-02-22T10:21:15.337Z,21.50
2019-02-22T10:23:44.387Z,24.37
2019-02-22T10:26:13.266Z,25.37
2019-02-22T10:28:42.443Z,24.63
2019-02-22T10:31:11.746Z,23.90
2019-02-22T10:34:03.299Z,24.07
2019-02-22T10:36:32.702Z,23.00
2019-02-22T10:39:02.060Z,24.67
2019-02-22T10:41:32.329Z,22.90
2019-02-22T10:44:04.344Z,21.93
2019-02-22T10:46:33.748Z,20.97
2019-02-22T10:49:10.651Z,22.53
2019-02-22T10:51:35.670Z,23.30
2019-02-22T10:54:05.438Z,23.10
2019-02-22T10:56:35.142Z,21.47
2019-02-22T11:01:53.990Z,19.23
2019-02-22T11:04:27.934Z,20.10
2019-02-22T11:06:57.136Z,17.90
2019-02-22T11:09:26.593Z,19.87
2019-02-22T11:11:59.206Z,17.93
2019-02-22T11:14:31.856Z,18.53
2019-02-22T11:17:02.177Z,20.80
2019-02-22T11:19:31.556Z,19.73
2019-02-22T11:22:00.880Z,22.37
2019-02-22T11:24:30.271Z,21.43
2019-02-22T11:26:59.930Z,21.53
2019-02-22T11:29:29.606Z,20.87
2019-02-22T11:31:59.343Z,23.63
2019-02-22T11:34:30.052Z,19.83
2019-02-22T11:36:59.222Z,20.70
2019-02-22T11:39:35.909Z,18.80
2019-02-22T11:42:05.532Z,18.17
2019-02-22T11:44:40.224Z,15.47
2019-02-22T11:47:07.421Z,12.70
2019-02-22T11:49:36.940Z,10.30
2019-02-22T11:52:06.664Z,10.27
2019-02-22T11:54:36.069Z,10.03
2019-02-22T11:57:05.735Z,10.30
2019-02-22T11:59:37.292Z,9.97
2019-02-22T12:02:06.838Z,10.73
2019-02-22T12:04:36.205Z,10.60
2019-02-22T12:07:06.224Z,11.43
2019-02-22T12:09:35.768Z,10.53
2019-02-22T12:12:05.248Z,11.60
2019-02-22T12:14:37.495Z,11.97
2019-02-22T12:17:09.063Z,11.53
2019-02-22T12:19:38.330Z,11.63
2019-02-22T12:22:07.915Z,11.80
2019-02-22T12:24:37.535Z,11.80
2019-02-22T12:27:07.474Z,11.63
2019-02-22T12:29:37.099Z,10.27
2019-02-22T12:32:07.225Z,10.87
2019-02-22T12:34:36.898Z,12.13
2019-02-22T12:37:06.178Z,10.57
2019-02-22T12:39:35.890Z,11.03
2019-02-22T12:42:05.479Z,10.20
2019-02-22T12:44:34.981Z,9.70
2019-02-22T12:47:04.573Z,10.20
2019-02-22T12:49:40.613Z,9.43
2019-02-22T12:52:10.173Z,8.20
2019-02-22T12:54:39.493Z,7.80
2019-02-22T12:57:09.039Z,9.87
2019-02-22T12:59:38.926Z,9.57
2019-02-22T13:02:09.706Z,9.37
2019-02-22T13:04:39.050Z,9.10
2019-02-22T13:07:08.604Z,8.60
2019-02-22T13:09:38.198Z,6.37
2019-02-22T13:12:13.976Z,3.87
2019-02-22T13:14:40.405Z,3.43
2019-02-22T13:18:03.072Z,3.47
2019-02-22T13:20:32.760Z,3.47
2019-02-22T13:23:02.237Z,3.57
2019-02-22T13:28:33.703Z,3.30
2019-02-22T13:31:03.809Z,3.57
2019-02-22T13:33:33.864Z,3.17
2019-02-22T13:36:03.399Z,3.10
2019-02-22T13:38:33.095Z,3.67
2019-02-22T13:41:02.386Z,3.10
2019-02-22T13:43:35.020Z,3.73
2019-02-22T13:46:05.030Z,3.07
2019-02-22T13:48:36.342Z,2.83
2019-02-22T13:51:21.360Z,3.70
2019-02-22T13:53:51.121Z,3.10
2019-02-22T13:56:31.305Z,2.77
2019-02-22T13:59:30.831Z,2.83
2019-02-22T14:02:05.815Z,2.57
2019-02-22T14:10:51.466Z,2.53
2019-02-22T14:13:18.153Z,3.30
2019-02-22T14:15:47.657Z,2.80
2019-02-22T14:18:36.179Z,2.83
2019-02-22T14:21:08.213Z,2.87
2019-02-22T14:23:37.544Z,3.13
2019-02-22T14:26:07.112Z,3.03
2019-02-22T14:28:36.696Z,2.90
2019-02-22T14:31:09.316Z,2.80
2019-02-22T14:33:38.848Z,3.00
2019-02-22T14:36:08.262Z,2.83
2019-02-22T14:38:37.942Z,3.27
2019-02-22T14:41:07.214Z,5.70
2019-02-22T14:43:36.730Z,3.00
2019-02-22T14:46:06.279Z,15.27
2019-02-22T14:48:35.862Z,3.83
2019-02-22T14:51:08.306Z,3.70
2019-02-22T14:53:37.631Z,3.93
2019-02-22T14:56:09.901Z,7.23
2019-02-22T14:58:39.191Z,7.00
2019-02-22T15:01:08.743Z,12.03
2019-02-22T15:03:45.086Z,20.67
2019-02-22T15:06:18.526Z,5.20
2019-02-22T15:08:53.634Z,3.77
2019-02-22T15:11:23.002Z,5.70
2019-02-22T15:13:55.360Z,94.13
2019-02-22T15:16:42.102Z,7.63
2019-02-22T15:19:11.932Z,4.30
2019-02-22T15:21:41.391Z,4.10
2019-02-22T15:24:12.278Z,3.60
2019-02-22T15:26:41.665Z,4.03
2019-02-22T15:29:11.240Z,4.10
2019-02-22T15:31:40.608Z,5.03
2019-02-22T15:34:10.847Z,34.23
2019-02-22T15:36:42.011Z,111.90
2019-02-22T15:42:02.620Z,9.47
2019-02-22T15:44:33.815Z,6.43
2019-02-22T15:47:11.703Z,5.33
2019-02-22T15:49:36.154Z,4.73
2019-02-22T15:52:18.777Z,4.77
2019-02-22T15:55:05.659Z,4.93
2019-02-22T16:01:58.032Z,6.63
2019-02-22T16:04:32.652Z,5.90
2019-02-22T16:07:02.129Z,5.37
2019-02-22T16:09:31.680Z,5.87
2019-02-22T16:12:00.947Z,4.40
2019-02-22T16:14:30.558Z,5.07
2019-02-22T16:17:00.150Z,4.13
2019-02-22T16:19:29.698Z,5.13
2019-02-22T16:21:59.102Z,4.67
2019-02-22T16:24:28.561Z,5.30
2019-02-22T16:27:21.425Z,5.10
2019-02-22T16:29:50.953Z,4.57
2019-02-22T16:32:20.333Z,5.33
2019-02-22T16:34:51.022Z,4.60
2019-02-22T16:37:39.419Z,3.90
2019-02-22T16:40:09.665Z,5.03
2019-02-22T16:42:39.674Z,4.43
2019-02-22T16:45:09.661Z,4.50
2019-02-22T16:47:40.233Z,4.13
2019-02-22T16:50:11.189Z,4.80
2019-02-22T16:52:40.775Z,5.00
2019-02-22T16:55:12.379Z,5.00
2019-02-22T16:57:41.775Z,4.70
2019-02-22T17:00:12.895Z,4.67
2019-02-22T17:02:47.163Z,5.17
2019-02-22T17:05:14.660Z,4.70
2019-02-22T17:07:43.944Z,4.80
2019-02-22T17:10:14.492Z,4.87
2019-02-22T17:12:43.632Z,4.57
2019-02-22T17:15:12.916Z,4.43
2019-02-22T17:17:42.840Z,5.10
2019-02-22T17:20:12.571Z,5.40
2019-02-22T17:22:42.290Z,7.17
2019-02-22T17:25:13.114Z,6.00
2019-02-22T17:27:42.523Z,6.23
2019-02-22T17:30:12.978Z,6.80
2019-02-22T17:32:42.844Z,10.40
2019-02-22T17:35:18.446Z,10.53
2019-02-22T17:37:48.436Z,8.90
2019-02-22T17:40:18.031Z,7.77
2019-02-22T17:42:49.196Z,6.03
2019-02-22T17:45:18.637Z,5.43
2019-02-22T17:47:48.395Z,5.53
2019-02-22T17:50:17.985Z,5.60
2019-02-22T17:52:54.966Z,5.83
2019-02-22T17:55:24.902Z,5.57
2019-02-22T17:57:54.488Z,5.30
2019-02-22T18:00:27.122Z,4.63
2019-02-22T18:02:58.428Z,6.23
2019-02-22T18:05:28.416Z,4.90
2019-02-22T18:08:04.457Z,6.20
2019-02-22T18:10:37.124Z,5.93
2019-02-22T18:13:07.040Z,6.17
2019-02-22T18:15:38.183Z,6.40
2019-02-22T18:18:10.271Z,5.93
2019-02-22T18:20:42.952Z,6.20
2019-02-22T18:23:21.851Z,5.70
2019-02-22T18:29:35.845Z,5.60
2019-02-22T18:32:05.964Z,6.00
2019-02-22T18:34:39.572Z,9.33
2019-02-22T18:37:15.324Z,7.47
2019-02-22T18:39:45.318Z,6.83
2019-02-22T18:42:27.571Z,7.90
2019-02-22T18:44:57.240Z,11.90
2019-02-22T18:47:27.012Z,8.30
2019-02-22T18:49:56.493Z,8.97
2019-02-22T18:53:07.798Z,7.87
2019-02-22T18:55:49.520Z,7.37
2019-02-22T19:02:27.331Z,7.03
2019-02-22T19:09:13.283Z,6.17
2019-02-22T19:12:11.093Z,6.90
2019-02-22T19:14:45.549Z,8.10
2019-02-22T19:17:34.667Z,8.10
2019-02-22T19:23:41.789Z,7.27
2019-02-22T19:29:07.735Z,8.87
2019-02-22T19:31:44.606Z,9.30
2019-02-22T19:41:14.266Z,12.43
2019-02-22T19:43:44.332Z,12.33
2019-02-22T19:46:26.382Z,11.50
2019-02-22T19:49:11.047Z,13.33
2019-02-22T19:51:44.137Z,24.67
2019-02-22T19:54:18.111Z,21.33
2019-02-22T19:56:49.297Z,26.60
2019-02-22T19:59:41.525Z,20.63
2019-02-22T20:02:11.542Z,20.77
2019-02-22T20:08:32.522Z,14.60
2019-02-22T20:11:55.132Z,9.97
2019-02-22T20:14:55.258Z,9.20
2019-02-22T20:17:54.647Z,9.63
2019-02-22T20:20:46.554Z,12.50
2019-02-22T20:23:18.423Z,12.00
2019-02-22T20:32:05.763Z,13.47
2019-02-22T20:52:20.422Z,10.60
2019-02-22T21:02:19.083Z,9.60
2019-02-22T21:30:16.876Z,9.50
2019-02-22T21:33:44.591Z,9.07
2019-02-22T21:42:20.083Z,9.20
2019-02-22T21:44:51.063Z,9.30
2019-02-22T22:06:52.317Z,8.03
2019-02-22T22:16:41.821Z,9.30
2019-02-22T22:20:09.377Z,9.53
2019-02-22T22:22:40.658Z,9.83
2019-02-22T22:54:02.736Z,9.10
2019-02-22T22:56:31.582Z,8.67
2019-02-22T22:59:00.491Z,10.37
2019-02-22T23:01:31.671Z,9.57
2019-02-22T23:04:00.902Z,8.80
2019-02-22T23:06:29.806Z,10.47
2019-02-22T23:08:58.751Z,10.97
2019-02-22T23:11:27.633Z,9.37
2019-02-22T23:13:56.486Z,10.77
2019-02-22T23:16:25.331Z,9.87
2019-02-22T23:19:01.448Z,9.93
2019-02-22T23:21:24.861Z,9.87
2019-02-22T23:23:53.853Z,8.80
2019-02-22T23:26:22.746Z,9.70
2019-02-22T23:28:51.570Z,9.23
2019-02-22T23:31:20.626Z,10.43
2019-02-22T23:33:49.573Z,9.23
2019-02-22T23:36:18.501Z,8.73
2019-02-22T23:38:47.363Z,8.90
2019-02-22T23:41:16.343Z,8.93
2019-02-22T23:43:45.299Z,10.30
2019-02-22T23:46:14.157Z,9.77
2019-02-22T23:48:43.043Z,10.30
2019-02-22T23:51:12.047Z,11.33
2019-02-22T23:53:41.262Z,11.33
2019-02-22T23:56:10.218Z,10.93
2019-02-22T23:58:39.046Z,11.73
